Aviation Digital Data Service (ADDS)

Output produced by TAFs form (0750 UTC 18 January 2018)
found at http://aviationweather.gov/adds/tafs/
 
KABQ 180520Z 1806/1906 01004KT P6SM SKC 
     FM181900 26006KT P6SM SCT250 
     FM190300 35006KT P6SM FEW250